createdAt,value
2023-11-14T00:01:25.538Z,99911.38
2023-11-14T00:03:52.445Z,99880.41
2023-11-14T00:06:19.193Z,99896.31
2023-11-14T00:08:46.608Z,99857.41
2023-11-14T00:11:13.339Z,99879.50
2023-11-14T00:13:40.184Z,99907.88
2023-11-14T00:16:07.623Z,99901.75
2023-11-14T00:18:34.538Z,99906.13
2023-11-14T00:21:01.283Z,99910.56
2023-11-14T00:23:28.031Z,99923.84
2023-11-14T00:25:54.794Z,99905.19
2023-11-14T00:28:21.550Z,99882.22
2023-11-14T00:30:48.405Z,99904.41
2023-11-14T00:33:15.218Z,99918.63
2023-11-14T00:35:44.313Z,99904.47
2023-11-14T00:38:11.203Z,99877.97
2023-11-14T00:40:40.253Z,99918.63
2023-11-14T00:43:06.979Z,99893.06
2023-11-14T00:45:33.626Z,99912.44
2023-11-14T00:48:01.193Z,99910.66
2023-11-14T00:50:28.096Z,99879.72
2023-11-14T00:52:55.035Z,99873.47
2023-11-14T00:55:21.713Z,99869.97
2023-11-14T00:57:48.306Z,99897.34
2023-11-14T01:00:16.006Z,99894.78
2023-11-14T01:02:42.860Z,99896.56
2023-11-14T01:05:09.747Z,99901.84
2023-11-14T01:07:36.914Z,99891.25
2023-11-14T01:10:05.060Z,99900.13
2023-11-14T01:12:33.591Z,99919.59
2023-11-14T01:15:01.186Z,99891.34
2023-11-14T01:17:28.560Z,99911.72
2023-11-14T01:19:55.361Z,99926.75
2023-11-14T01:22:22.092Z,99928.47
2023-11-14T01:24:48.847Z,99927.59
2023-11-14T01:27:16.954Z,99943.56
2023-11-14T01:29:47.681Z,99929.41
2023-11-14T01:32:14.437Z,99933.91
2023-11-14T01:34:42.134Z,99933.03
2023-11-14T01:37:10.294Z,99920.72
2023-11-14T01:39:37.152Z,99947.31
2023-11-14T01:42:03.996Z,99938.47
2023-11-14T01:44:31.356Z,99935.03
2023-11-14T01:46:58.542Z,99952.72
2023-11-14T01:49:25.430Z,99946.50
2023-11-14T01:51:52.084Z,99936.78
2023-11-14T01:54:18.985Z,99929.78
2023-11-14T01:56:46.088Z,99951.88
2023-11-14T01:59:12.886Z,99958.16
2023-11-14T02:01:39.772Z,99941.34
2023-11-14T02:04:11.506Z,99924.47
2023-11-14T02:06:38.518Z,99948.31
2023-11-14T02:09:08.788Z,99936.84
2023-11-14T02:11:36.283Z,99938.72
2023-11-14T02:14:03.115Z,99990.94
2023-11-14T02:16:49.573Z,99978.56
2023-11-14T02:19:16.925Z,99993.59
2023-11-14T02:21:44.200Z,99972.31
2023-11-14T02:24:22.200Z,100005.91
2023-11-14T02:26:50.277Z,99998.84
2023-11-14T02:29:19.746Z,100016.56
2023-11-14T02:31:49.187Z,99993.50
2023-11-14T02:34:16.411Z,99997.03
2023-11-14T02:36:43.398Z,99984.59
2023-11-14T02:39:10.066Z,99997.03
2023-11-14T02:41:36.955Z,100005.00
2023-11-14T02:44:04.367Z,99967.88
2023-11-14T02:46:31.672Z,99989.94
2023-11-14T02:49:11.384Z,99989.06
2023-11-14T02:51:38.675Z,99993.41
2023-11-14T02:54:05.711Z,100000.47
2023-11-14T02:56:32.262Z,99987.22
2023-11-14T02:59:01.610Z,100004.91
2023-11-14T03:01:28.423Z,100005.81
2023-11-14T03:03:55.067Z,100020.00
2023-11-14T03:06:22.747Z,100009.38
2023-11-14T03:08:49.349Z,100007.59
2023-11-14T03:11:16.015Z,99988.22
2023-11-14T03:13:43.004Z,100018.28
2023-11-14T03:16:15.116Z,100013.00
2023-11-14T03:18:42.031Z,100015.69
2023-11-14T03:21:08.819Z,100029.00
2023-11-14T03:23:35.379Z,100041.38
2023-11-14T03:26:02.118Z,100038.72
2023-11-14T03:28:28.747Z,100022.88
2023-11-14T03:30:55.400Z,100043.25
2023-11-14T03:33:22.058Z,100033.50
2023-11-14T03:35:48.760Z,100043.28
2023-11-14T03:38:15.769Z,100025.63
2023-11-14T03:40:42.461Z,99992.84
2023-11-14T03:43:09.689Z,100014.09
2023-11-14T03:45:36.800Z,100023.84
2023-11-14T03:48:03.570Z,100041.56
2023-11-14T03:50:30.235Z,100049.53
2023-11-14T03:52:56.923Z,100025.63
2023-11-14T03:55:25.027Z,100050.41
2023-11-14T03:57:51.669Z,100043.34
2023-11-14T04:00:18.448Z,100051.31
2023-11-14T04:02:45.248Z,100060.19
2023-11-14T04:05:12.021Z,100054.84
2023-11-14T04:07:39.994Z,100046.88
2023-11-14T04:10:08.390Z,100067.28
2023-11-14T04:12:35.250Z,100065.50
2023-11-14T04:15:01.972Z,100046.91
2023-11-14T04:17:28.787Z,100069.03
2023-11-14T04:19:55.605Z,100065.47
2023-11-14T04:22:22.469Z,100061.06
2023-11-14T04:24:50.201Z,100069.91
2023-11-14T04:27:17.728Z,100049.53
2023-11-14T04:29:44.693Z,100053.94
2023-11-14T04:32:11.538Z,100059.25
2023-11-14T04:34:38.719Z,100053.06
2023-11-14T04:37:06.098Z,100053.03
2023-11-14T04:39:32.992Z,100052.16
2023-11-14T04:41:59.924Z,100047.72
2023-11-14T04:44:26.719Z,100033.53
2023-11-14T04:46:53.526Z,100035.31
2023-11-14T04:49:21.152Z,100045.03
2023-11-14T04:51:47.772Z,100040.63
2023-11-14T04:54:14.470Z,100052.13
2023-11-14T04:56:41.155Z,100046.81
2023-11-14T04:59:07.784Z,100045.03
2023-11-14T05:01:34.621Z,100043.28
2023-11-14T05:04:01.301Z,100030.91
2023-11-14T05:06:29.072Z,100047.72
2023-11-14T05:08:55.693Z,100053.91
2023-11-14T05:11:22.338Z,100061.00
2023-11-14T05:13:49.044Z,100053.03
2023-11-14T05:16:22.504Z,100074.31
2023-11-14T05:18:51.230Z,100074.31
2023-11-14T05:21:18.283Z,100081.41
2023-11-14T05:23:44.964Z,100072.53
2023-11-14T05:26:11.573Z,100076.97
2023-11-14T05:28:39.369Z,100082.28
2023-11-14T05:31:06.432Z,100082.28
2023-11-14T05:33:33.209Z,100065.44
2023-11-14T05:35:59.873Z,100080.53
2023-11-14T05:38:28.528Z,100092.03
2023-11-14T05:40:57.746Z,100090.25
2023-11-14T05:43:25.669Z,100090.25
2023-11-14T05:45:52.493Z,100086.69
2023-11-14T05:48:20.871Z,100070.78
2023-11-14T05:50:48.768Z,100073.34
2023-11-14T05:53:17.079Z,100076.88
2023-11-14T05:55:43.932Z,100084.84
2023-11-14T05:58:11.699Z,100086.66
2023-11-14T06:00:38.402Z,100090.19
2023-11-14T06:03:05.206Z,100085.75
2023-11-14T06:05:31.992Z,100081.31
2023-11-14T06:07:58.742Z,100086.72
2023-11-14T06:10:25.462Z,100102.66
2023-11-14T06:12:52.890Z,100084.06
2023-11-14T06:15:19.745Z,100091.16
2023-11-14T06:17:46.480Z,100094.72
2023-11-14T06:20:15.745Z,100100.91
2023-11-14T06:22:42.669Z,100099.16
2023-11-14T06:25:09.478Z,100096.50
2023-11-14T06:27:36.256Z,100116.00
2023-11-14T06:30:03.126Z,100116.88
2023-11-14T06:32:30.229Z,100117.78
2023-11-14T06:34:57.548Z,100128.41
2023-11-14T06:37:24.274Z,100120.41
2023-11-14T06:39:50.999Z,100132.84
2023-11-14T06:42:17.633Z,100139.91
2023-11-14T06:44:44.882Z,100119.56
2023-11-14T06:47:11.850Z,100142.59
2023-11-14T06:49:38.829Z,100133.72
2023-11-14T06:52:05.520Z,100123.09
2023-11-14T06:54:32.134Z,100158.56
2023-11-14T06:57:00.557Z,100143.50
2023-11-14T06:59:27.314Z,100143.50
2023-11-14T07:01:54.121Z,100130.19
2023-11-14T07:04:21.313Z,100137.25
2023-11-14T07:06:48.114Z,100146.13
2023-11-14T07:09:16.874Z,100146.13
2023-11-14T07:11:45.822Z,100139.03
2023-11-14T07:14:13.866Z,100111.59
2023-11-14T07:16:40.690Z,100142.59
2023-11-14T07:19:07.821Z,100135.50
2023-11-14T07:21:34.675Z,100143.47
2023-11-14T07:24:01.318Z,100146.13
2023-11-14T07:26:29.067Z,100157.66
2023-11-14T07:28:55.815Z,100123.09
2023-11-14T07:31:22.567Z,100156.75
2023-11-14T07:33:49.201Z,100149.66
2023-11-14T07:36:15.886Z,100167.41
2023-11-14T07:38:44.270Z,100167.44
2023-11-14T07:41:11.879Z,100155.03
2023-11-14T07:43:38.929Z,100163.88
2023-11-14T07:46:07.163Z,100155.00
2023-11-14T07:48:35.089Z,100130.19
2023-11-14T07:51:02.153Z,100137.28
2023-11-14T07:53:28.716Z,100130.22
2023-11-14T07:55:55.643Z,100133.75
2023-11-14T07:58:26.228Z,100140.81
2023-11-14T08:00:53.658Z,100118.66
2023-11-14T08:03:20.489Z,100136.41
2023-11-14T08:05:48.788Z,100129.31
2023-11-14T08:08:16.809Z,100106.28
2023-11-14T08:10:43.471Z,100123.09
2023-11-14T08:13:10.091Z,100114.25
2023-11-14T08:15:36.758Z,100111.59
2023-11-14T08:18:03.540Z,100119.56
2023-11-14T08:20:30.155Z,100149.69
2023-11-14T08:22:56.948Z,100145.22
2023-11-14T08:25:23.793Z,100144.31
2023-11-14T08:27:50.876Z,100146.94
2023-11-14T08:30:17.999Z,100144.28
2023-11-14T08:32:46.318Z,100143.38
2023-11-14T08:35:13.113Z,100137.19
2023-11-14T08:37:39.749Z,100156.66
2023-11-14T08:40:10.986Z,100143.34
2023-11-14T08:42:37.900Z,100165.47
2023-11-14T08:45:05.046Z,100146.84
2023-11-14T08:47:31.651Z,100122.00
2023-11-14T08:49:58.364Z,100153.00
2023-11-14T08:52:25.092Z,100128.19
2023-11-14T08:54:51.815Z,100146.75
2023-11-14T08:57:18.497Z,100144.03
2023-11-14T08:59:45.101Z,100138.66
2023-11-14T09:02:11.812Z,100145.69
2023-11-14T09:04:38.519Z,100127.97
2023-11-14T09:07:05.383Z,100134.16
2023-11-14T09:09:32.005Z,100142.84
2023-11-14T09:11:59.313Z,100151.28
2023-11-14T09:14:27.006Z,100130.91
2023-11-14T09:16:54.876Z,100148.53
2023-11-14T09:19:23.765Z,100145.91
2023-11-14T09:21:50.640Z,100146.81
2023-11-14T09:24:17.444Z,100147.50
2023-11-14T09:26:44.285Z,100123.75
2023-11-14T09:29:11.011Z,100138.69
2023-11-14T09:31:37.823Z,100154.56
2023-11-14T09:34:05.692Z,100146.69
2023-11-14T09:36:32.327Z,100160.97
2023-11-14T09:38:58.966Z,100145.81
2023-11-14T09:41:28.665Z,100155.59
2023-11-14T09:43:56.054Z,100172.38
2023-11-14T09:46:22.767Z,100170.38
2023-11-14T09:48:50.960Z,100152.53
2023-11-14T09:51:19.345Z,100153.19
2023-11-14T09:53:48.362Z,100175.63
2023-11-14T09:56:16.722Z,100166.56
2023-11-14T09:58:43.631Z,100155.63
2023-11-14T10:01:11.670Z,100168.38
2023-11-14T10:03:38.865Z,100184.09
2023-11-14T10:06:05.813Z,100176.19
2023-11-14T10:08:45.343Z,100183.41
2023-11-14T10:11:15.677Z,100180.78
2023-11-14T10:13:42.372Z,100171.50
2023-11-14T10:16:22.520Z,100193.22
2023-11-14T10:18:51.163Z,100189.22
2023-11-14T10:21:22.574Z,100163.19
2023-11-14T10:23:49.442Z,100192.81
2023-11-14T10:26:16.406Z,100185.50
2023-11-14T10:29:01.259Z,100128.47
2023-11-14T10:31:39.102Z,100154.91
2023-11-14T10:34:10.948Z,100176.06
2023-11-14T10:36:49.935Z,100168.44
2023-11-14T10:39:16.647Z,100169.44
2023-11-14T10:41:43.728Z,100159.16
2023-11-14T10:44:13.239Z,100174.13
2023-11-14T10:46:59.847Z,100166.38
2023-11-14T10:49:27.548Z,100156.72
2023-11-14T10:51:55.806Z,100146.25
2023-11-14T10:54:23.361Z,100171.09
2023-11-14T10:56:56.000Z,100133.78
2023-11-14T10:59:26.531Z,100144.19
2023-11-14T11:01:53.624Z,100164.59
2023-11-14T11:04:20.975Z,100140.41
2023-11-14T11:06:50.643Z,100110.16
2023-11-14T11:09:19.910Z,100116.78
2023-11-14T11:11:50.621Z,100105.00
2023-11-14T11:14:19.494Z,100124.44
2023-11-14T11:16:49.170Z,100124.56
2023-11-14T11:19:27.281Z,100125.44
2023-11-14T11:22:08.498Z,100102.28
2023-11-14T11:24:41.345Z,100105.50
2023-11-14T11:27:23.962Z,100112.47
2023-11-14T11:29:59.813Z,100116.22
2023-11-14T11:32:31.733Z,100111.97
2023-11-14T11:35:24.984Z,100107.53
2023-11-14T11:37:57.971Z,100114.75
2023-11-14T11:40:26.861Z,100111.25
2023-11-14T11:43:10.204Z,100076.81
2023-11-14T11:45:38.066Z,100109.28
2023-11-14T11:48:05.080Z,100091.50
2023-11-14T11:50:34.143Z,100101.97
2023-11-14T11:53:06.200Z,100099.34
2023-11-14T11:55:37.026Z,100096.63
2023-11-14T11:58:06.906Z,100059.81
2023-11-14T12:00:33.921Z,100103.91
2023-11-14T12:03:02.289Z,100079.28
2023-11-14T12:05:30.617Z,100072.22
2023-11-14T12:07:59.389Z,100091.69
2023-11-14T12:10:26.894Z,100061.63
2023-11-14T12:12:56.785Z,100087.50
2023-11-14T12:15:29.531Z,100076.03
2023-11-14T12:18:00.074Z,100073.53
2023-11-14T12:20:27.342Z,100060.19
2023-11-14T12:22:54.441Z,100069.97
2023-11-14T12:25:22.402Z,100069.16
2023-11-14T12:28:02.645Z,100072.75
2023-11-14T12:30:30.113Z,100081.78
2023-11-14T12:33:22.989Z,100078.38
2023-11-14T12:35:59.495Z,100071.25
2023-11-14T12:38:30.496Z,100067.75
2023-11-14T12:41:29.769Z,100058.88
2023-11-14T12:44:08.031Z,100050.06
2023-11-14T12:46:37.991Z,100025.38
2023-11-14T12:49:17.854Z,100031.53
2023-11-14T12:51:45.969Z,100011.25
2023-11-14T12:54:14.276Z,100009.53
2023-11-14T12:56:41.681Z,100009.66
2023-11-14T12:59:11.691Z,100019.47
2023-11-14T13:01:43.116Z,100014.19
2023-11-14T13:04:13.271Z,100020.34
2023-11-14T13:06:43.279Z,99992.91
2023-11-14T13:09:10.269Z,100000.91
2023-11-14T13:11:37.085Z,100020.41
2023-11-14T13:14:04.433Z,100023.13
2023-11-14T13:16:31.658Z,100038.25
2023-11-14T13:18:58.407Z,100020.56
2023-11-14T13:21:25.823Z,100019.56
2023-11-14T13:23:53.080Z,100009.03
2023-11-14T13:26:23.918Z,100023.19
2023-11-14T13:28:51.902Z,99994.06
2023-11-14T13:31:20.067Z,100002.03
2023-11-14T13:33:47.606Z,99979.09
2023-11-14T13:36:17.623Z,99981.78
2023-11-14T13:38:45.741Z,100009.22
2023-11-14T13:43:42.919Z,99999.56
2023-11-14T13:46:20.238Z,99972.13
2023-11-14T13:48:51.591Z,99980.09
2023-11-14T13:51:19.505Z,99986.31
2023-11-14T13:53:47.359Z,99980.13
2023-11-14T13:56:14.157Z,99979.25
2023-11-14T13:58:41.526Z,100004.94
2023-11-14T14:01:10.441Z,99998.78
2023-11-14T14:03:38.597Z,99966.13
2023-11-14T14:06:08.555Z,99975.00
2023-11-14T14:08:38.724Z,99974.16
2023-11-14T14:11:08.906Z,99975.06
2023-11-14T14:13:36.311Z,99975.97
2023-11-14T14:16:08.868Z,99969.78
2023-11-14T14:18:36.371Z,99985.81
2023-11-14T14:21:04.225Z,99973.38
2023-11-14T14:23:31.482Z,99960.16
2023-11-14T14:25:58.902Z,99972.56
2023-11-14T14:28:36.004Z,99949.53
2023-11-14T14:31:07.685Z,99954.84
2023-11-14T14:33:34.460Z,99957.50
2023-11-14T14:36:01.080Z,99946.94
2023-11-14T14:38:27.774Z,99924.81
2023-11-14T14:40:54.429Z,99931.06
2023-11-14T14:43:21.103Z,99939.03
2023-11-14T14:45:48.237Z,99930.19
2023-11-14T14:48:15.283Z,99946.16
2023-11-14T14:50:42.106Z,99947.94
2023-11-14T14:53:13.077Z,99936.50
2023-11-14T14:55:39.690Z,99933.88
2023-11-14T14:58:08.327Z,99916.22
2023-11-14T15:00:35.152Z,99934.81
2023-11-14T15:03:02.937Z,99923.34
2023-11-14T15:05:36.489Z,99904.88
2023-11-14T15:08:04.434Z,99913.69
2023-11-14T15:10:31.775Z,99909.31
2023-11-14T15:13:00.242Z,99914.69
2023-11-14T15:15:27.915Z,99909.41
2023-11-14T15:17:58.445Z,99912.13
2023-11-14T15:20:26.040Z,99897.97
2023-11-14T15:22:53.396Z,99889.16
2023-11-14T15:25:20.346Z,99901.53
2023-11-14T15:27:47.134Z,99899.78
2023-11-14T15:30:14.771Z,99882.13
2023-11-14T15:32:42.791Z,99894.50
2023-11-14T15:35:09.599Z,99894.53
2023-11-14T15:37:36.407Z,99893.66
2023-11-14T15:40:09.612Z,99907.84
2023-11-14T15:42:42.739Z,99885.75
2023-11-14T15:45:09.726Z,99903.44
2023-11-14T15:47:36.458Z,99901.66
2023-11-14T15:50:05.534Z,99897.28
2023-11-14T15:52:32.973Z,99889.34
2023-11-14T15:54:59.744Z,99880.50
2023-11-14T15:57:27.785Z,99904.38
2023-11-14T15:59:55.180Z,99904.38
2023-11-14T16:02:22.136Z,99892.88
2023-11-14T16:04:49.654Z,99896.41
2023-11-14T16:07:16.658Z,99866.38
2023-11-14T16:09:43.363Z,99887.59
2023-11-14T16:12:10.295Z,99883.16
2023-11-14T16:14:37.209Z,99884.94
2023-11-14T16:17:05.028Z,99875.22
2023-11-14T16:19:37.585Z,99884.06
2023-11-14T16:22:05.411Z,99869.03
2023-11-14T16:24:32.399Z,99873.47
2023-11-14T16:26:59.937Z,99873.47
2023-11-14T16:29:26.730Z,99866.38
2023-11-14T16:31:53.629Z,99859.31
2023-11-14T16:34:20.280Z,99870.81
2023-11-14T16:36:46.946Z,99861.09
2023-11-14T16:39:13.604Z,99850.47
2023-11-14T16:41:41.452Z,99864.63
2023-11-14T16:44:08.267Z,99855.78
2023-11-14T16:46:35.662Z,99849.59
2023-11-14T16:49:02.392Z,99856.66
2023-11-14T16:51:32.472Z,99850.47
2023-11-14T16:54:03.080Z,99844.28
2023-11-14T16:56:30.121Z,99839.84
2023-11-14T16:58:59.251Z,99841.63
2023-11-14T17:01:28.053Z,99828.34
2023-11-14T17:03:58.939Z,99831.00
2023-11-14T17:06:25.914Z,99830.13
2023-11-14T17:08:52.561Z,99804.50
2023-11-14T17:11:19.341Z,99827.47
2023-11-14T17:13:45.968Z,99837.19
2023-11-14T17:16:13.827Z,99801.84
2023-11-14T17:18:40.684Z,99838.94
2023-11-14T17:21:07.472Z,99838.06
2023-11-14T17:23:36.642Z,99802.72
2023-11-14T17:26:03.448Z,99841.63
2023-11-14T17:28:30.149Z,99829.25
2023-11-14T17:30:56.750Z,99832.78
2023-11-14T17:33:23.445Z,99838.94
2023-11-14T17:35:51.292Z,99839.84
2023-11-14T17:38:17.903Z,99824.81
2023-11-14T17:40:44.693Z,99829.22
2023-11-14T17:43:11.400Z,99841.59
2023-11-14T17:45:39.502Z,99849.56
2023-11-14T17:48:08.971Z,99846.94
2023-11-14T17:50:37.203Z,99854.88
2023-11-14T17:53:05.001Z,99852.22
2023-11-14T17:55:32.136Z,99861.97
2023-11-14T17:57:58.773Z,99864.63
2023-11-14T18:00:27.407Z,99858.44
2023-11-14T18:02:57.059Z,99860.22
2023-11-14T18:05:25.592Z,99861.97
2023-11-14T18:07:53.140Z,99868.16
2023-11-14T18:10:20.406Z,99869.94
2023-11-14T18:12:50.498Z,99857.56
2023-11-14T18:15:19.081Z,99854.03
2023-11-14T18:17:46.487Z,99871.72
2023-11-14T18:20:14.138Z,99876.16
2023-11-14T18:22:41.840Z,99876.16
2023-11-14T18:25:09.480Z,99850.50
2023-11-14T18:27:36.345Z,99879.69
2023-11-14T18:30:05.206Z,99894.72
2023-11-14T18:32:33.750Z,99897.41
2023-11-14T18:35:02.528Z,99879.72
2023-11-14T18:37:29.207Z,99896.50
2023-11-14T18:39:55.801Z,99907.13
2023-11-14T18:42:22.368Z,99914.19
2023-11-14T18:45:01.422Z,99918.63
2023-11-14T18:47:34.105Z,99918.63
2023-11-14T18:50:01.130Z,99927.47
2023-11-14T18:52:27.924Z,99931.88
2023-11-14T18:54:55.968Z,99944.25
2023-11-14T18:57:22.586Z,99954.00
2023-11-14T18:59:49.295Z,99956.66
2023-11-14T19:02:16.010Z,99963.72
2023-11-14T19:04:42.840Z,99964.59
2023-11-14T19:07:09.564Z,99977.88
2023-11-14T19:09:36.213Z,99974.31
2023-11-14T19:12:04.376Z,99970.78
2023-11-14T19:14:32.010Z,99976.97
2023-11-14T19:16:59.782Z,99992.91
2023-11-14T19:19:26.918Z,99996.44
2023-11-14T19:21:54.001Z,100007.06
2023-11-14T19:24:21.018Z,99997.31
2023-11-14T19:26:47.824Z,100010.59
2023-11-14T19:29:14.724Z,100000.88
2023-11-14T19:31:43.370Z,100025.63
2023-11-14T19:34:11.288Z,100022.97
2023-11-14T19:36:38.552Z,100034.47
2023-11-14T19:39:09.306Z,100036.22
2023-11-14T19:41:36.119Z,100045.06
2023-11-14T19:44:02.778Z,100049.50
2023-11-14T19:46:29.446Z,100039.75
2023-11-14T19:48:56.130Z,100053.94
2023-11-14T19:51:23.900Z,100052.16
2023-11-14T19:53:50.780Z,100056.59
2023-11-14T19:56:18.247Z,100070.75
2023-11-14T19:58:45.678Z,100068.09
2023-11-14T20:01:12.803Z,100066.31
2023-11-14T20:03:39.690Z,100080.47
2023-11-14T20:06:06.950Z,100085.75
2023-11-14T20:08:33.814Z,100090.19
2023-11-14T20:11:00.857Z,100091.97
2023-11-14T20:13:27.743Z,100074.25
2023-11-14T20:15:54.406Z,100107.00
2023-11-14T20:18:21.171Z,100099.03
2023-11-14T20:20:48.051Z,100103.47
2023-11-14T20:23:14.717Z,100102.59
2023-11-14T20:25:41.417Z,100123.84
2023-11-14T20:28:08.486Z,100126.50
2023-11-14T20:30:35.095Z,100136.25
2023-11-14T20:33:02.057Z,100145.97
2023-11-14T20:35:28.917Z,100155.72
2023-11-14T20:37:58.820Z,100153.03
2023-11-14T20:40:29.745Z,100161.88
2023-11-14T20:42:56.422Z,100159.19
2023-11-14T20:45:23.155Z,100182.22
2023-11-14T20:47:49.916Z,100173.31
2023-11-14T20:50:16.931Z,100180.44
2023-11-14T20:52:43.823Z,100187.53
2023-11-14T20:55:10.491Z,100185.75
2023-11-14T20:57:37.288Z,100198.13
2023-11-14T21:00:08.707Z,100193.69
2023-11-14T21:02:35.460Z,100202.50
2023-11-14T21:05:02.072Z,100213.19
2023-11-14T21:07:28.630Z,100189.25
2023-11-14T21:09:55.215Z,100231.78
2023-11-14T21:12:21.821Z,100225.63
2023-11-14T21:14:48.478Z,100233.59
2023-11-14T21:17:17.564Z,100208.78
2023-11-14T21:19:45.748Z,100246.91
2023-11-14T21:22:12.443Z,100241.59
2023-11-14T21:24:39.916Z,100261.97
2023-11-14T21:27:06.812Z,100263.75
2023-11-14T21:29:33.529Z,100264.66
2023-11-14T21:32:01.788Z,100266.44
2023-11-14T21:34:28.387Z,100279.72
2023-11-14T21:36:55.075Z,100259.34
2023-11-14T21:39:21.730Z,100282.34
2023-11-14T21:41:48.348Z,100283.25
2023-11-14T21:44:15.057Z,100285.00
2023-11-14T21:46:42.701Z,100296.53
2023-11-14T21:49:11.266Z,100316.00
2023-11-14T21:51:38.516Z,100290.28
2023-11-14T21:54:06.172Z,100312.47
2023-11-14T21:56:33.742Z,100311.56
2023-11-14T21:59:00.448Z,100327.50
2023-11-14T22:01:28.561Z,100322.13
2023-11-14T22:03:55.221Z,100322.16
2023-11-14T22:06:22.102Z,100335.38
2023-11-14T22:08:48.818Z,100348.66
2023-11-14T22:11:15.620Z,100348.66
2023-11-14T22:13:42.277Z,100320.19
2023-11-14T22:16:09.086Z,100370.75
2023-11-14T22:18:35.707Z,100383.16
2023-11-14T22:21:02.396Z,100378.69
2023-11-14T22:23:31.233Z,100372.50
2023-11-14T22:25:57.799Z,100361.84
2023-11-14T22:28:24.844Z,100384.88
2023-11-14T22:30:52.240Z,100379.59
2023-11-14T22:33:19.469Z,100386.69
2023-11-14T22:35:46.222Z,100392.00
2023-11-14T22:38:12.914Z,100400.84
2023-11-14T22:40:39.957Z,100392.91
2023-11-14T22:43:07.116Z,100393.78
2023-11-14T22:45:33.819Z,100402.63
2023-11-14T22:48:00.595Z,100409.72
2023-11-14T22:50:27.361Z,100402.56
2023-11-14T22:52:53.931Z,100427.38
2023-11-14T22:55:20.537Z,100431.78
2023-11-14T22:57:47.133Z,100430.00
2023-11-14T23:00:34.101Z,100441.53
2023-11-14T23:03:02.008Z,100448.63
2023-11-14T23:05:28.744Z,100453.06
2023-11-14T23:07:55.368Z,100462.78
2023-11-14T23:10:22.513Z,100481.38
2023-11-14T23:12:49.952Z,100471.63
2023-11-14T23:15:17.903Z,100472.53
2023-11-14T23:17:47.684Z,100460.97
2023-11-14T23:20:14.456Z,100484.94
2023-11-14T23:22:41.036Z,100485.75
2023-11-14T23:25:08.123Z,100491.06
2023-11-14T23:27:34.968Z,100496.31
2023-11-14T23:30:04.878Z,100497.19
2023-11-14T23:32:31.575Z,100471.34
2023-11-14T23:34:58.261Z,100507.75
2023-11-14T23:37:24.938Z,100512.22
2023-11-14T23:39:52.297Z,100495.28
2023-11-14T23:42:19.135Z,100513.06
2023-11-14T23:44:45.836Z,100518.41
2023-11-14T23:47:13.130Z,100505.97
2023-11-14T23:49:39.924Z,100514.81
2023-11-14T23:52:07.134Z,100536.22
2023-11-14T23:54:34.092Z,100535.34
2023-11-14T23:57:00.829Z,100539.81
2023-11-14T23:59:27.582Z,100546.03
